Manistee, MI

5:57 PM EDT on June 03, 2015 (GMT -0400)
MesoWest | | Change Station
CLOSE
Current Station
Personal Weather Station
Location: Filer City, MI
Elevation: 659 ft
Nearby Weather Stations

Elev 659 ft 44.22 °N, 86.31 °W | Updated 32 minutes ago

Clear
Clear
70 °F
Feels Like 70 °F
N
8
Wind Variable Wind from South
Gusts 14.0 mph

Today
High -- | Low -- °F
--% Chance of Precip.
Yesterday
High -- | Low -- °F
Precip. -- in
6:03 AM 9:22 PM
Full, 98% visible
Pressure 30.02 in
Visibility 10.0 miles
Clouds Clear
Dew Point 48 °F
Humidity 46%
Rainfall in
Snow Depth Not available.
UV 5 out of 12
Pollen 8.10 out of 12
Air Quality Not available.
Flu Activity Sporadic
METAR KMBL 032135Z AUTO 28010KT 10SM CLR 20/08 A3002 RMK AO1

More Conditions Fewer Conditions

Pressure 30.02 in
Visibility 10.0 miles
Clouds Clear
Dew Point 48 °F
Humidity 46%
Rainfall in
Snow Depth Not available.
UV 5 out of 12
Pollen 8.10 out of 12
Air Quality Not available.
Flu Activity Sporadic
METAR KMBL 032135Z AUTO 28010KT 10SM CLR 20/08 A3002 RMK AO1

More Conditions Fewer Conditions

Nowcast | as of 5:00 PM EDT on June 3, 2015

At 6 PM...mostly clear. Temperature 67. West winds 7 mph. At 8 PM...mostly clear. Temperature 66. Light winds. At 10 PM...mostly clear. Temperature 60. Light winds. At 12 am...mostly clear. Temperature 56. Light winds.

×

10-Day Weather Forecast

×

Almanac

Astronomy

Jun. 03, 2015 Rise Set
Actual Time
Civil Twilight
Nautical Twilight
Astronomical Twilight
Moon
Length of Visible Light
Length of Day
Tomorrow will be .
, % of the Moon is Illuminated

Today's Extremes

State Highs State Lows

Community

WunderPhotos

Upload Photos

1,826,291 photos uploaded!

WunderBlogs® & News

Nearby

Air Quality

  Air Quality AQ Index Pollutant
Not available.

Snow Depth

Station Depth Elevation

Earthquake Activity

City Distance Mag. Time & Date
Minimum magnitude displayed is 2.5.

Coastal Water Temperatures

Place Temperature

Stations

Nearby Weather Stations

Station Location Temp. Windchill Dew Point Humidity Wind Precip. Elev Updated Type